Time;durP1;ratioP1;P1;durP2;ratioP2;P2;SDS_P1;SDS_P2;PMS_P1;PMS_P2;Temp;Humidity;BMP_temperature;BMP_pressure;BME280_temperature;BME280_humidity;BME280_pressure;Samples;Min_cycle;Max_cycle;Signal;HPM_P1;HPM_P2
2022/05/09 00:00:37;;;;;;;10.93;4.80;;;;;;;9.41;81.21;102560.06;5276446;28;20032;-63
2022/05/09 00:03:08;;;;;;;11.73;4.82;;;;;;;9.28;82.45;102558.84;5275654;28;20043;-63
2022/05/09 00:05:39;;;;;;;10.23;4.45;;;;;;;9.29;82.98;102557.91;5276591;28;20020;-63
2022/05/09 00:08:11;;;;;;;12.60;5.10;;;;;;;9.26;80.59;102550.03;5268294;28;20035;-63
2022/05/09 00:10:42;;;;;;;13.10;4.00;;;;;;;9.30;79.86;102540.13;5273959;28;20055;-63
2022/05/09 00:13:13;;;;;;;10.45;4.78;;;;;;;9.25;82.71;102542.16;5276255;28;20036;-63
2022/05/09 00:15:44;;;;;;;9.07;3.85;;;;;;;9.09;79.59;102540.16;5276235;28;20063;-63
2022/05/09 00:18:17;;;;;;;10.10;4.05;;;;;;;9.18;80.79;102539.72;5276519;28;20091;-63
2022/05/09 00:20:48;;;;;;;9.75;4.10;;;;;;;9.06;82.92;102534.94;5275371;28;20381;-63
2022/05/09 00:23:19;;;;;;;11.45;4.57;;;;;;;9.10;81.87;102533.00;5271577;28;20057;-63
2022/05/09 00:25:50;;;;;;;10.90;3.80;;;;;;;9.11;80.67;102534.72;5275504;28;20029;-63
2022/05/09 00:28:22;;;;;;;9.68;3.97;;;;;;;8.98;81.25;102539.72;5277237;28;20085;-63
2022/05/09 00:30:54;;;;;;;11.38;4.07;;;;;;;8.99;82.99;102541.44;5268365;28;20040;-63
2022/05/09 00:33:26;;;;;;;10.40;4.10;;;;;;;8.89;81.48;102538.31;5274287;28;20033;-63
2022/05/09 00:35:57;;;;;;;13.48;4.15;;;;;;;8.98;79.45;102529.09;5275251;28;20055;-63
2022/05/09 00:38:28;;;;;;;9.75;4.13;;;;;;;8.85;79.97;102534.06;5274091;28;20097;-63
2022/05/09 00:43:50;;;;;;;12.48;3.92;;;;;;;8.93;80.24;102533.72;5271405;28;20146;-63
2022/05/09 00:46:22;;;;;;;9.18;4.00;;;;;;;8.86;80.75;102541.13;5275458;28;20423;-63
2022/05/09 00:48:55;;;;;;;9.75;4.03;;;;;;;8.77;79.11;102530.84;5276920;28;20115;-63
2022/05/09 00:51:27;;;;;;;13.57;3.83;;;;;;;8.79;81.18;102540.50;5273742;28;20035;-63
2022/05/09 00:54:02;;;;;;;15.45;4.28;;;;;;;8.73;79.30;102534.59;5275646;28;20470;-63
2022/05/09 00:56:43;;;;;;;14.10;4.03;;;;;;;8.64;80.93;102528.69;5263496;28;20060;-63
2022/05/09 00:59:17;;;;;;;13.32;4.40;;;;;;;8.62;81.56;102527.03;5273038;28;20084;-63
2022/05/09 01:01:48;;;;;;;14.70;4.25;;;;;;;8.57;81.71;102534.31;5272844;28;20112;-63
2022/05/09 01:04:26;;;;;;;11.00;4.65;;;;;;;8.58;84.93;102526.28;5275751;28;20111;-63
2022/05/09 01:06:58;;;;;;;14.93;5.22;;;;;;;8.59;85.05;102529.81;5273824;28;20369;-63
2022/05/09 01:09:29;;;;;;;11.05;4.50;;;;;;;8.61;84.93;102522.63;5276487;28;20074;-63
2022/05/09 01:12:02;;;;;;;11.50;4.22;;;;;;;8.41;81.40;102523.41;5279635;28;20017;-63
2022/05/09 01:14:34;;;;;;;11.60;4.40;;;;;;;8.42;80.92;102517.22;5279042;28;20044;-63
2022/05/09 01:17:07;;;;;;;9.60;4.88;;;;;;;8.36;84.23;102514.75;5277963;28;20410;-63
2022/05/09 01:19:42;;;;;;;11.88;4.65;;;;;;;8.31;84.67;102509.63;5280129;28;20028;-63
2022/05/09 01:22:28;;;;;;;13.23;4.68;;;;;;;8.36;85.26;102509.44;5279569;28;20432;-63
2022/05/09 01:25:03;;;;;;;13.80;5.25;;;;;;;8.16;83.36;102508.44;5276089;28;20033;-63
2022/05/09 01:27:36;;;;;;;11.40;4.32;;;;;;;8.31;85.68;102516.75;5279064;28;20032;-63
2022/05/09 01:30:19;;;;;;;13.77;4.50;;;;;;;8.22;85.19;102518.81;5271103;28;20032;-63
2022/05/09 01:32:57;;;;;;;14.70;5.45;;;;;;;8.11;85.06;102517.53;5277563;28;20343;-63
2022/05/09 01:35:38;;;;;;;10.43;4.57;;;;;;;8.17;86.71;102515.50;5274407;28;20052;-63
2022/05/09 01:38:22;;;;;;;13.27;5.20;;;;;;;8.21;85.63;102513.59;5280339;28;20020;-63
2022/05/09 01:40:53;;;;;;;15.00;4.80;;;;;;;8.15;84.86;102514.69;5278602;28;20021;-63
2022/05/09 01:43:39;;;;;;;9.55;4.40;;;;;;;8.10;84.49;102505.16;5276503;28;20248;-63
2022/05/09 01:46:16;;;;;;;14.45;4.95;;;;;;;8.10;86.53;102503.38;5279719;28;20032;-63
2022/05/09 01:51:39;;;;;;;13.65;4.75;;;;;;;7.92;83.93;102514.72;5277046;28;20045;-62
2022/05/09 01:54:11;;;;;;;13.32;5.18;;;;;;;7.87;83.87;102509.59;5275531;28;20040;-63
2022/05/09 01:56:43;;;;;;;13.30;4.95;;;;;;;7.96;86.27;102511.03;5279364;28;20447;-63
2022/05/09 01:59:15;;;;;;;14.00;4.93;;;;;;;7.99;84.84;102513.56;5279976;28;20036;-63
2022/05/09 02:02:00;;;;;;;11.15;4.88;;;;;;;7.95;84.88;102509.28;5278364;28;20032;-63
2022/05/09 02:04:33;;;;;;;13.32;4.80;;;;;;;7.90;86.91;102513.91;5276924;28;20032;-63
2022/05/09 02:07:09;;;;;;;15.43;4.88;;;;;;;7.90;85.27;102509.47;5279041;28;20074;-63
2022/05/09 02:09:42;;;;;;;13.82;4.70;;;;;;;7.75;85.50;102512.72;5275466;28;20492;-63
2022/05/09 02:12:15;;;;;;;12.93;4.53;;;;;;;7.69;84.66;102510.28;5278887;28;20035;-62
2022/05/09 02:14:48;;;;;;;16.63;4.88;;;;;;;7.80;85.19;102508.94;5275851;28;20090;-63
2022/05/09 02:17:19;;;;;;;13.40;4.93;;;;;;;7.75;88.08;102510.91;5278527;28;20078;-63
2022/05/09 02:19:50;;;;;;;11.90;5.40;;;;;;;7.77;87.83;102508.22;5293489;28;20490;-63
2022/05/09 02:22:22;;;;;;;14.73;5.15;;;;;;;7.72;88.08;102504.84;5279142;28;20497;-63
2022/05/09 02:24:53;;;;;;;12.00;5.07;;;;;;;7.55;86.34;102498.38;5275869;28;20448;-63
2022/05/09 02:27:24;;;;;;;10.65;5.10;;;;;;;7.65;88.41;102502.44;5279226;28;20367;-63
2022/05/09 02:29:57;;;;;;;15.75;5.53;;;;;;;7.58;89.02;102500.06;5276296;28;20040;-63
2022/05/09 02:32:28;;;;;;;18.98;5.85;;;;;;;7.61;88.15;102498.16;5278040;28;20029;-63
2022/05/09 02:34:59;;;;;;;21.05;5.80;;;;;;;7.58;87.25;102495.59;5276704;28;20382;-63
2022/05/09 02:37:30;;;;;;;13.55;5.15;;;;;;;7.62;87.32;102501.69;5279361;28;20024;-62
2022/05/09 02:40:03;;;;;;;11.48;5.22;;;;;;;7.59;89.05;102500.00;5276140;28;20501;-63
2022/05/09 02:42:34;;;;;;;12.15;4.70;;;;;;;7.46;88.61;102493.44;5279165;28;20029;-62
2022/05/09 02:45:07;;;;;;;13.25;5.00;;;;;;;7.34;88.32;102499.16;5276254;28;20028;-63
2022/05/09 02:47:40;;;;;;;16.58;6.32;;;;;;;7.39;89.30;102489.25;5278037;28;20036;-63
2022/05/09 02:50:12;;;;;;;11.55;4.95;;;;;;;7.39;89.39;102492.78;5277615;28;20020;-62
2022/05/09 02:52:43;;;;;;;13.82;5.57;;;;;;;7.34;88.62;102493.84;5275530;28;20028;-62
2022/05/09 02:55:15;;;;;;;13.07;4.85;;;;;;;7.41;88.43;102498.88;5274005;28;20513;-63
2022/05/09 02:57:47;;;;;;;14.80;5.40;;;;;;;7.33;89.84;102493.00;5278826;28;20097;-63
2022/05/09 03:00:22;;;;;;;15.80;5.78;;;;;;;7.20;88.50;102500.53;5276836;28;20021;-63
2022/05/09 03:05:45;;;;;;;13.77;4.75;;;;;;;7.10;88.53;102490.31;5277229;28;19916;-63
2022/05/09 03:08:17;;;;;;;12.77;5.97;;;;;;;7.13;88.87;102492.84;5277898;28;20024;-63
2022/05/09 03:10:49;;;;;;;12.02;5.20;;;;;;;7.11;89.35;102484.91;5275487;28;20474;-63
2022/05/09 03:13:20;;;;;;;14.98;5.50;;;;;;;7.11;89.43;102484.91;5278195;28;20089;-63
2022/05/09 03:15:51;;;;;;;12.98;5.18;;;;;;;7.07;90.66;102489.47;5272762;28;20063;-63
2022/05/09 03:18:24;;;;;;;14.13;6.50;;;;;;;7.07;90.79;102485.97;5277696;28;20036;-63
2022/05/09 03:20:55;;;;;;;15.27;5.55;;;;;;;7.12;89.92;102481.38;5276209;28;20035;-63
2022/05/09 03:23:27;;;;;;;15.02;5.75;;;;;;;6.99;91.50;102488.88;5277398;28;20296;-63
2022/05/09 03:25:58;;;;;;;13.20;5.70;;;;;;;6.98;91.23;102483.63;5276187;28;20043;-63
2022/05/09 03:28:30;;;;;;;11.73;5.22;;;;;;;7.01;90.42;102484.38;5277271;28;20100;-62
2022/05/09 03:31:01;;;;;;;11.50;5.47;;;;;;;6.93;91.62;102480.28;5290155;28;20031;-63
2022/05/09 03:33:33;;;;;;;11.60;5.53;;;;;;;6.87;91.19;102473.41;5272553;28;20036;-63
2022/05/09 03:36:04;;;;;;;13.43;5.28;;;;;;;6.89;91.38;102476.00;5276432;28;20031;-63
2022/05/09 03:38:38;;;;;;;14.73;5.80;;;;;;;6.83;92.50;102475.28;5277142;28;20580;-63
2022/05/09 03:41:09;;;;;;;13.18;5.70;;;;;;;6.87;91.66;102471.59;5275352;28;20036;-63
2022/05/09 03:43:40;;;;;;;12.45;5.40;;;;;;;6.85;91.96;102475.25;5275459;28;20481;-63
2022/05/09 03:46:11;;;;;;;14.38;5.22;;;;;;;6.68;91.01;102463.41;5276970;28;20044;-63
2022/05/09 03:48:43;;;;;;;15.95;6.05;;;;;;;6.67;92.95;102463.47;5275785;28;20067;-63
2022/05/09 03:51:14;;;;;;;17.95;5.88;;;;;;;6.72;93.37;102468.63;5276393;28;20025;-63
2022/05/09 03:53:45;;;;;;;15.85;5.43;;;;;;;6.72;92.78;102463.31;5276991;28;20487;-63
2022/05/09 03:56:17;;;;;;;13.63;5.97;;;;;;;6.70;93.58;102468.66;5275261;28;20029;-63
2022/05/09 03:58:48;;;;;;;13.10;5.22;;;;;;;6.72;94.19;102465.97;5276181;28;20029;-63
2022/05/09 04:01:20;;;;;;;14.68;5.70;;;;;;;6.78;92.72;102476.38;5277156;28;20028;-63
2022/05/09 04:03:51;;;;;;;11.82;5.93;;;;;;;6.73;91.81;102465.03;5275282;28;20767;-63
2022/05/09 04:06:23;;;;;;;16.73;5.68;;;;;;;6.68;93.23;102466.06;5276229;28;20074;-63
2022/05/09 04:08:55;;;;;;;15.73;6.13;;;;;;;6.71;93.15;102475.69;5276730;28;20390;-63
2022/05/09 04:11:26;;;;;;;16.65;5.43;;;;;;;6.75;92.51;102477.34;5273508;28;20052;-63
2022/05/09 04:13:57;;;;;;;15.80;6.50;;;;;;;6.72;92.49;102471.28;5277220;28;20029;-62
2022/05/09 04:19:19;;;;;;;19.08;5.88;;;;;;;6.61;92.29;102471.63;5273462;28;20028;-63
2022/05/09 04:21:50;;;;;;;14.05;6.40;;;;;;;6.62;93.40;102468.06;5276152;28;20032;-62
2022/05/09 04:24:21;;;;;;;14.80;6.93;;;;;;;6.69;92.51;102464.28;5274170;28;20051;-63
2022/05/09 04:26:52;;;;;;;15.57;5.93;;;;;;;6.71;92.50;102461.56;5272745;28;20039;-63
2022/05/09 04:29:25;;;;;;;12.52;5.95;;;;;;;6.67;93.92;102464.34;5277249;28;20029;-62
2022/05/09 04:31:56;;;;;;;19.98;7.50;;;;;;;6.70;93.46;102467.81;5275133;28;20086;-63
2022/05/09 04:34:27;;;;;;;15.07;6.95;;;;;;;6.62;94.11;102460.97;5272063;28;20024;-63
2022/05/09 04:36:59;;;;;;;13.70;6.15;;;;;;;6.73;94.59;102457.06;5274119;28;20486;-63
2022/05/09 04:39:30;;;;;;;16.52;7.18;;;;;;;6.74;95.55;102464.13;5274831;28;20078;-63
2022/05/09 04:42:01;;;;;;;16.52;5.53;;;;;;;6.71;94.03;102457.13;5276064;28;20037;-63
2022/05/09 04:44:32;;;;;;;16.88;6.57;;;;;;;6.70;94.26;102458.06;5281446;28;20100;-62
2022/05/09 04:47:04;;;;;;;15.90;6.72;;;;;;;6.68;95.00;102459.91;5277800;28;20501;-63
2022/05/09 04:49:35;;;;;;;15.25;6.85;;;;;;;6.77;95.72;102453.41;5280818;28;20063;-63
2022/05/09 04:52:07;;;;;;;17.90;6.93;;;;;;;6.78;96.04;102460.44;5277742;28;20016;-63
2022/05/09 04:54:38;;;;;;;17.77;6.90;;;;;;;6.80;96.83;102456.81;5279303;28;20036;-63
2022/05/09 04:57:09;;;;;;;15.55;7.03;;;;;;;6.72;95.49;102464.19;5278108;28;20229;-63
2022/05/09 04:59:40;;;;;;;12.88;7.05;;;;;;;6.84;96.54;102454.94;5279608;28;20032;-62
2022/05/09 05:02:12;;;;;;;18.88;6.60;;;;;;;6.86;96.00;102461.03;5275090;28;20040;-63
2022/05/09 05:04:43;;;;;;;15.00;6.88;;;;;;;6.74;95.56;102448.22;5278757;28;20029;-63
2022/05/09 05:07:14;;;;;;;18.73;8.07;;;;;;;6.86;96.36;102446.00;5279417;28;20028;-63
2022/05/09 05:09:46;;;;;;;17.48;6.88;;;;;;;6.84;94.62;102445.16;5278039;28;20032;-63
2022/05/09 05:12:17;;;;;;;16.15;7.00;;;;;;;6.91;95.22;102442.31;5277384;28;20466;-63
2022/05/09 05:14:48;;;;;;;16.60;7.20;;;;;;;6.85;94.40;102446.06;5277301;28;20114;-63
2022/05/09 05:17:19;;;;;;;18.45;7.03;;;;;;;6.85;94.88;102454.88;5279165;28;20037;-63
2022/05/09 05:19:51;;;;;;;15.77;7.78;;;;;;;6.91;95.69;102451.16;5277900;28;20046;-62
2022/05/09 05:22:22;;;;;;;17.73;7.03;;;;;;;6.96;93.95;102449.19;5280168;28;20079;-62
2022/05/09 05:24:54;;;;;;;14.23;8.00;;;;;;;6.91;93.63;102455.59;5278852;28;20034;-63
2022/05/09 05:27:25;;;;;;;16.67;6.80;;;;;;;7.01;94.21;102449.03;5279651;28;20526;-63
2022/05/09 05:29:58;;;;;;;15.98;7.53;;;;;;;6.89;92.88;102449.47;5275579;28;20028;-63
2022/05/09 05:32:34;;;;;;;18.55;7.63;;;;;;;6.96;93.10;102453.63;5274120;28;20068;-63
2022/05/09 05:35:08;;;;;;;15.63;7.60;;;;;;;7.04;94.31;102457.75;5275019;28;20032;-63
2022/05/09 05:37:40;;;;;;;20.02;8.57;;;;;;;7.03;92.95;102455.16;5279450;28;20040;-63
2022/05/09 05:40:12;;;;;;;14.60;6.85;;;;;;;7.03;92.30;102456.00;5278434;28;20108;-63
2022/05/09 05:42:45;;;;;;;14.77;6.85;;;;;;;7.11;93.27;102458.38;5277742;28;20052;-63
2022/05/09 05:45:20;;;;;;;11.18;7.00;;;;;;;7.12;91.98;102457.47;5278982;28;20098;-63
2022/05/09 05:47:52;;;;;;;12.85;6.22;;;;;;;7.19;92.34;102452.78;5278818;28;20509;-63
2022/05/09 05:50:23;;;;;;;14.60;6.80;;;;;;;7.19;92.72;102456.34;5277129;28;20032;-63
2022/05/09 05:52:55;;;;;;;12.93;6.45;;;;;;;7.29;92.03;102451.56;5278748;28;20597;-62
2022/05/09 05:55:26;;;;;;;14.95;6.63;;;;;;;7.34;93.15;102454.88;5277532;28;20555;-63
2022/05/09 05:57:58;;;;;;;15.10;7.03;;;;;;;7.44;92.86;102458.94;5277432;28;20154;-63
2022/05/09 06:00:29;;;;;;;11.93;6.75;;;;;;;7.44;91.18;102456.28;5278844;28;20024;-63
2022/05/09 06:03:00;;;;;;;15.77;7.22;;;;;;;7.53;91.66;102457.72;5276945;28;20109;-63
2022/05/09 06:05:32;;;;;;;19.13;7.55;;;;;;;7.59;90.70;102456.63;5277292;28;20025;-62
2022/05/09 06:08:03;;;;;;;16.15;7.55;;;;;;;7.70;90.36;102451.78;5279106;28;20128;-63
2022/05/09 06:10:35;;;;;;;15.73;6.85;;;;;;;7.81;90.12;102449.56;5277291;28;20371;-63
2022/05/09 06:13:06;;;;;;;19.35;6.95;;;;;;;7.83;90.68;102455.69;5279248;28;20085;-62
2022/05/09 06:15:37;;;;;;;17.77;7.50;;;;;;;7.89;90.02;102451.91;5270905;28;20126;-63
2022/05/09 06:18:12;;;;;;;19.25;7.95;;;;;;;7.99;91.34;102450.63;5275012;28;20021;-62
2022/05/09 06:20:44;;;;;;;19.95;7.63;;;;;;;8.08;90.20;102452.06;5277323;28;20039;-63
2022/05/09 06:23:18;;;;;;;16.98;7.32;;;;;;;8.08;89.28;102444.09;5274129;28;20502;-62
2022/05/09 06:25:49;;;;;;;19.55;7.60;;;;;;;8.19;88.71;102454.28;5276750;28;20040;-62
2022/05/09 06:28:22;;;;;;;20.60;7.90;;;;;;;8.30;89.72;102454.69;5275299;28;20189;-62
2022/05/09 06:30:53;;;;;;;21.30;7.38;;;;;;;8.43;87.85;102458.63;5276977;28;20024;-63
2022/05/09 06:33:25;;;;;;;20.20;7.88;;;;;;;8.60;87.06;102443.75;5278380;28;20028;-63
2022/05/09 06:35:59;;;;;;;15.77;7.45;;;;;;;8.64;88.06;102450.66;5276483;28;20028;-63
2022/05/09 06:38:31;;;;;;;16.88;7.65;;;;;;;8.75;88.12;102443.09;5276700;28;20043;-63
2022/05/09 06:41:02;;;;;;;19.73;8.30;;;;;;;8.87;87.50;102447.00;5279391;28;20471;-62
2022/05/09 06:43:34;;;;;;;14.88;7.80;;;;;;;9.04;86.61;102440.97;5276417;28;20035;-63
2022/05/09 06:46:05;;;;;;;18.88;7.53;;;;;;;9.05;87.68;102444.47;5277532;28;20032;-63
2022/05/09 06:48:36;;;;;;;17.13;7.35;;;;;;;9.27;86.23;102439.94;5277143;28;20031;-63
2022/05/09 06:51:07;;;;;;;14.55;7.32;;;;;;;9.37;85.16;102443.03;5276436;28;20405;-63
2022/05/09 06:53:40;;;;;;;18.02;7.45;;;;;;;9.53;83.71;102440.50;5272574;28;20489;-63
2022/05/09 06:56:11;;;;;;;17.27;7.32;;;;;;;9.70;82.97;102437.06;5279107;28;20036;-63
2022/05/09 06:58:43;;;;;;;16.23;7.28;;;;;;;9.92;81.83;102440.44;5275971;28;20043;-63
2022/05/09 07:01:16;;;;;;;16.27;7.68;;;;;;;10.07;82.53;102437.94;5277157;28;20029;-63
2022/05/09 07:03:47;;;;;;;17.42;6.70;;;;;;;10.23;80.68;102440.75;5274015;28;20039;-63
2022/05/09 07:06:19;;;;;;;16.45;6.90;;;;;;;10.35;80.97;102435.69;5274435;28;20032;-63
2022/05/09 07:08:50;;;;;;;15.05;6.95;;;;;;;10.60;78.64;102437.13;5277386;28;20032;-63
2022/05/09 07:11:21;;;;;;;16.42;6.55;;;;;;;10.65;79.61;102437.75;5275415;28;20047;-63
2022/05/09 07:13:53;;;;;;;16.70;7.13;;;;;;;10.87;77.97;102436.63;5270124;28;20062;-63
2022/05/09 07:16:25;;;;;;;13.90;7.47;;;;;;;10.97;77.87;102443.25;5276872;28;20040;-63
2022/05/09 07:18:57;;;;;;;17.35;6.72;;;;;;;11.10;79.43;102430.06;5275946;28;20040;-63
2022/05/09 07:21:29;;;;;;;14.90;6.93;;;;;;;11.30;77.23;102437.03;5277577;28;20590;-63
2022/05/09 07:24:00;;;;;;;15.35;6.65;;;;;;;11.43;76.63;102435.44;5270562;28;20028;-63
2022/05/09 07:26:31;;;;;;;13.35;6.10;;;;;;;11.51;76.60;102441.22;5276180;28;20032;-63
2022/05/09 07:29:05;;;;;;;15.57;6.60;;;;;;;11.67;75.84;102440.38;5275337;28;20054;-63
2022/05/09 07:31:39;;;;;;;12.32;6.50;;;;;;;11.74;76.06;102439.09;5277360;28;20033;-63
2022/05/09 07:34:11;;;;;;;15.82;6.88;;;;;;;12.02;73.21;102434.88;5275062;28;20042;-63
2022/05/09 07:36:42;;;;;;;16.42;7.00;;;;;;;12.19;71.47;102432.06;5278290;28;20017;-63
2022/05/09 07:39:13;;;;;;;14.48;7.18;;;;;;;12.23;71.37;102430.94;5277776;28;20360;-63
2022/05/09 07:41:45;;;;;;;15.48;7.13;;;;;;;12.36;73.64;102433.78;5275395;28;20441;-64
2022/05/09 07:44:16;;;;;;;12.95;6.93;;;;;;;12.63;71.16;102433.09;5276900;28;20382;-63
2022/05/09 07:46:48;;;;;;;13.05;5.90;;;;;;;12.71;70.31;102434.38;5266787;28;20037;-63
2022/05/09 07:49:19;;;;;;;13.10;6.25;;;;;;;12.92;70.32;102440.25;5275758;28;20028;-63
2022/05/09 07:51:50;;;;;;;13.30;6.43;;;;;;;13.09;69.95;102432.97;5271117;28;20024;-63
2022/05/09 07:54:21;;;;;;;14.50;6.55;;;;;;;13.16;68.04;102442.38;5275752;28;20040;-63
2022/05/09 07:56:53;;;;;;;20.55;6.68;;;;;;;13.30;66.92;102438.84;5277129;28;20048;-64
2022/05/09 07:59:24;;;;;;;16.55;6.03;;;;;;;13.36;64.91;102432.25;5276553;28;20411;-63
2022/05/09 08:01:56;;;;;;;16.13;6.35;;;;;;;13.49;67.07;102436.75;5273754;28;20037;-63
2022/05/09 08:04:27;;;;;;;13.45;5.90;;;;;;;13.77;66.51;102432.31;5275156;28;20066;-63
2022/05/09 08:06:58;;;;;;;14.95;5.97;;;;;;;13.85;65.46;102434.50;5276242;28;20021;-63
2022/05/09 08:09:29;;;;;;;11.95;5.68;;;;;;;14.03;64.28;102435.94;5275226;28;20029;-63
2022/05/09 08:12:03;;;;;;;13.32;5.20;;;;;;;14.22;63.66;102437.44;5276549;28;20029;-63
2022/05/09 08:14:35;;;;;;;12.20;5.50;;;;;;;14.41;63.77;102434.38;5276507;28;20082;-64
2022/05/09 08:17:09;;;;;;;11.25;5.00;;;;;;;14.47;62.13;102440.19;5274502;28;20036;-63
2022/05/09 08:19:40;;;;;;;12.10;4.68;;;;;;;14.69;60.28;102430.72;5274616;28;20017;-64
2022/05/09 08:22:12;;;;;;;8.90;4.38;;;;;;;14.70;60.34;102437.78;5275709;28;20382;-63
2022/05/09 08:24:43;;;;;;;10.50;4.78;;;;;;;14.75;59.95;102441.03;5270800;28;20490;-63
2022/05/09 08:27:14;;;;;;;10.70;4.85;;;;;;;14.90;58.56;102439.13;5277940;28;20086;-64
2022/05/09 08:29:46;;;;;;;12.88;5.03;;;;;;;14.76;61.65;102432.00;5274922;28;20043;-63
2022/05/09 08:32:18;;;;;;;16.15;5.60;;;;;;;15.03;61.42;102440.00;5276356;28;20471;-63
2022/05/09 08:34:51;;;;;;;13.68;4.93;;;;;;;15.29;59.87;102434.59;5274447;28;20478;-64
2022/05/09 08:37:24;;;;;;;11.48;5.13;;;;;;;15.49;59.16;102441.22;5268644;28;20090;-64
2022/05/09 08:39:55;;;;;;;15.55;6.70;;;;;;;15.55;58.74;102435.41;5275068;28;20130;-64
2022/05/09 08:43:10;;;;;;;13.52;5.68;;;;;;;15.45;61.73;102437.88;5274257;28;20037;-64
2022/05/09 08:45:47;;;;;;;15.20;5.25;;;;;;;15.79;57.77;102434.63;5274093;28;20036;-64
2022/05/09 08:48:53;;;;;;;12.93;5.38;;;;;;;15.86;58.15;102435.91;5276790;28;20086;-64
2022/05/09 08:51:46;;;;;;;12.40;4.65;;;;;;;16.12;57.88;102430.41;5247056;28;20055;-64
2022/05/09 08:54:21;;;;;;;11.20;4.70;;;;;;;16.28;55.31;102425.59;5276191;28;20036;-64
2022/05/09 08:57:00;;;;;;;12.82;5.05;;;;;;;16.20;54.08;102428.88;5274874;28;20078;-64
2022/05/09 08:59:36;;;;;;;12.60;5.43;;;;;;;16.49;53.75;102419.53;5290226;28;20097;-64
2022/05/09 09:02:14;;;;;;;11.88;5.00;;;;;;;16.53;55.49;102416.50;5269105;28;20378;-64
2022/05/09 09:04:53;;;;;;;11.00;4.90;;;;;;;16.56;52.98;102421.63;5267292;28;20573;-64
2022/05/09 09:07:40;;;;;;;11.00;4.07;;;;;;;16.76;53.63;102408.44;5276901;28;20036;-63
2022/05/09 09:10:39;;;;;;;10.63;4.10;;;;;;;16.91;56.06;102411.81;5274369;28;20024;-64
2022/05/09 09:13:32;;;;;;;12.18;4.60;;;;;;;17.05;54.27;102409.75;5275756;28;20036;-63
2022/05/09 09:16:37;;;;;;;10.52;4.60;;;;;;;17.10;52.50;102400.44;5273811;28;20169;-63
2022/05/09 09:19:27;;;;;;;;;;;;;;;17.07;55.88;102403.38;5259051;28;20133;-64
2022/05/09 09:22:25;;;;;;;11.32;4.03;;;;;;;17.30;52.88;102399.72;5268779;28;19920;-64
2022/05/09 09:25:16;;;;;;;12.23;4.68;;;;;;;17.48;53.18;102402.75;5274835;28;20375;-64
2022/05/09 09:27:53;;;;;;;11.25;4.20;;;;;;;17.55;52.28;102405.84;5274368;28;20041;-65
2022/05/09 09:30:25;;;;;;;8.95;3.90;;;;;;;17.56;49.06;102394.88;5277656;28;20032;-64
2022/05/09 09:33:03;;;;;;;9.98;4.22;;;;;;;17.70;50.36;102407.28;5278331;28;20035;-64
2022/05/09 09:35:58;;;;;;;8.32;3.83;;;;;;;17.73;53.20;102400.75;5278209;28;20040;-65
2022/05/09 09:38:42;;;;;;;11.10;3.90;;;;;;;17.89;50.97;102400.38;5270668;28;20028;-64
2022/05/09 09:41:16;;;;;;;;;;;;;;;17.80;54.61;102391.19;5276709;28;20042;-64
2022/05/09 09:43:52;;;;;;;10.97;3.83;;;;;;;18.13;50.64;102392.06;5276217;28;19920;-64
2022/05/09 09:46:24;;;;;;;10.32;3.38;;;;;;;18.11;49.11;102394.91;5279554;28;20037;-64
2022/05/09 09:49:08;;;;;;;6.65;2.90;;;;;;;18.01;50.72;102383.16;5279020;28;20028;-64
2022/05/09 09:51:48;;;;;;;8.75;3.35;;;;;;;18.30;47.89;102391.50;5274303;28;20043;-64
2022/05/09 09:54:22;;;;;;;8.13;2.95;;;;;;;18.08;46.50;102384.34;5279479;28;20028;-64
2022/05/09 09:56:54;;;;;;;6.85;2.58;;;;;;;18.32;46.36;102377.88;5278719;28;20396;-64
2022/05/09 09:59:31;;;;;;;11.18;3.40;;;;;;;18.46;47.97;102384.78;5278987;28;20539;-65
2022/05/09 10:02:16;;;;;;;9.63;3.25;;;;;;;18.50;46.66;102378.97;5277801;28;20036;-64
2022/05/09 10:04:48;;;;;;;7.68;3.10;;;;;;;18.71;47.13;102376.25;5277946;28;20482;-64
2022/05/09 10:07:32;;;;;;;8.02;3.10;;;;;;;18.76;49.27;102371.31;5266305;28;20055;-64
2022/05/09 10:10:10;;;;;;;7.72;2.78;;;;;;;18.72;47.03;102371.75;5276696;28;20040;-64
2022/05/09 10:12:53;;;;;;;8.63;3.17;;;;;;;18.70;46.22;102368.31;5279179;28;20035;-64
2022/05/09 10:15:34;;;;;;;11.02;3.28;;;;;;;18.89;46.53;102360.34;5277577;28;20197;-65
2022/05/09 10:18:18;;;;;;;11.55;3.42;;;;;;;18.94;45.80;102363.47;5278968;28;20032;-65
2022/05/09 10:20:51;;;;;;;9.05;3.20;;;;;;;19.06;45.04;102363.38;5276236;28;20105;-65
2022/05/09 10:26:23;;;;;;;6.05;2.78;;;;;;;19.29;45.00;102354.09;5278070;28;20298;-65
2022/05/09 10:29:02;;;;;;;7.38;2.88;;;;;;;19.29;45.80;102348.66;5294288;28;20037;-65
2022/05/09 10:31:48;;;;;;;8.85;3.20;;;;;;;19.27;45.21;102353.38;5276208;28;20112;-65
2022/05/09 10:34:22;;;;;;;10.20;3.30;;;;;;;19.40;44.11;102344.97;5274301;28;20501;-65
2022/05/09 10:37:05;;;;;;;;;;;;;;;19.31;48.43;102341.28;5276303;28;20459;-65
2022/05/09 10:39:43;;;;;;;7.72;2.95;;;;;;;19.66;44.86;102339.06;5276170;28;20005;-65
2022/05/09 10:42:24;;;;;;;8.45;2.70;;;;;;;19.65;44.55;102338.19;5276760;28;20097;-65
2022/05/09 10:45:04;;;;;;;8.85;2.83;;;;;;;19.48;44.41;102339.72;5277726;28;20024;-65
2022/05/09 10:47:55;;;;;;;8.00;2.92;;;;;;;19.69;44.62;102330.63;5278072;28;20021;-65
2022/05/09 10:50:42;;;;;;;6.20;2.47;;;;;;;19.86;44.54;102338.09;5278211;28;20035;-65
2022/05/09 10:53:53;;;;;;;9.70;2.92;;;;;;;19.86;44.90;102334.53;5293042;28;20036;-65
2022/05/09 10:56:30;;;;;;;6.43;2.75;;;;;;;20.02;44.11;102328.53;5268274;28;20114;-65
2022/05/09 10:59:09;;;;;;;8.93;3.05;;;;;;;19.86;43.45;102326.41;5277718;28;20027;-65
2022/05/09 11:02:05;;;;;;;8.32;3.28;;;;;;;19.85;44.50;102327.41;5276743;28;20494;-65
2022/05/09 11:04:37;;;;;;;6.72;3.25;;;;;;;19.95;43.51;102328.28;5273958;28;20397;-65
2022/05/09 11:07:35;;;;;;;7.32;3.42;;;;;;;19.78;43.71;102319.84;5277663;28;20026;-65
2022/05/09 11:10:22;;;;;;;11.98;3.60;;;;;;;19.98;43.65;102309.00;5277333;28;20042;-65
2022/05/09 11:13:15;;;;;;;10.52;3.42;;;;;;;20.08;44.58;102312.56;5275188;28;20032;-65
2022/05/09 11:16:01;;;;;;;7.65;3.42;;;;;;;20.13;42.53;102312.97;5266682;28;20257;-65
2022/05/09 11:19:04;;;;;;;7.90;3.40;;;;;;;20.28;42.84;102312.53;5264022;28;20032;-65
2022/05/09 11:22:46;;;;;;;6.57;3.40;;;;;;;20.31;45.05;102304.97;5276215;28;20457;-65
2022/05/09 11:25:43;;;;;;;7.50;3.58;;;;;;;20.40;43.39;102300.53;5179384;28;20037;-65
2022/05/09 11:28:37;;;;;;;7.88;3.20;;;;;;;20.47;44.04;102293.53;5210967;28;20582;-65
2022/05/09 11:31:20;;;;;;;7.70;3.63;;;;;;;20.61;41.32;102286.78;5275394;28;20023;-65
2022/05/09 11:34:10;;;;;;;8.68;3.63;;;;;;;20.48;43.22;102291.66;5277022;28;20039;-65
2022/05/09 11:37:04;;;;;;;8.20;3.40;;;;;;;20.55;43.49;102285.50;5275148;28;20028;-65
2022/05/09 11:40:10;;;;;;;9.98;3.40;;;;;;;20.64;42.86;102283.78;5276116;28;20089;-65
2022/05/09 11:46:04;;;;;;;10.50;4.10;;;;;;;20.90;42.83;102275.84;5276459;28;20036;-65
2022/05/09 11:48:49;;;;;;;10.75;4.03;;;;;;;20.83;42.36;102265.75;5273491;28;20510;-65
2022/05/09 11:51:32;;;;;;;9.73;3.67;;;;;;;20.92;40.23;102268.41;5276950;28;20390;-65
2022/05/09 11:54:08;;;;;;;11.68;4.00;;;;;;;20.95;40.83;102268.09;5275953;28;20487;-65
2022/05/09 11:56:45;;;;;;;7.70;4.05;;;;;;;21.05;42.40;102265.31;5274287;28;20037;-65
2022/05/09 11:59:26;;;;;;;10.20;3.85;;;;;;;21.23;41.57;102261.78;5277066;28;20036;-65
2022/05/09 12:02:09;;;;;;;11.60;4.65;;;;;;;21.18;41.00;102254.09;5275949;28;20502;-65
2022/05/09 12:04:47;;;;;;;8.65;4.30;;;;;;;21.21;41.58;102250.22;5276670;28;20039;-65
2022/05/09 12:07:21;;;;;;;11.90;5.35;;;;;;;21.38;40.21;102245.81;5272436;28;20028;-64
2022/05/09 12:10:11;;;;;;;10.98;5.25;;;;;;;21.30;39.93;102255.56;5270356;28;20035;-65
2022/05/09 12:12:45;;;;;;;11.10;4.78;;;;;;;21.42;39.89;102247.22;5276312;28;20031;-65
2022/05/09 12:15:16;;;;;;;9.98;4.80;;;;;;;21.32;41.30;102248.16;5276867;28;20048;-65
2022/05/09 12:18:21;;;;;;;10.93;4.43;;;;;;;21.56;42.32;102248.59;5275045;28;20433;-64
2022/05/09 12:20:53;;;;;;;;;;;;;;;21.52;40.35;102245.31;5269689;28;20301;-65